Fleet, United Kingdom
Current Conditions -  °F | °C
As of 8:20 AM on Thursday 29 Jan 2015 (Local Time) from EGLF Reporting Station
Few Clouds Few Clouds  
Wind Chill: 26°   Ceiling: Unl
Heat Index: 36°   Visibility: 6mi
Dew Point: 32°   Wind: 16mph
Humidity: 87%   Direction: 240°WSW
Pressure: 29.21"   Gusts: NA
Location:  51.27°N, 0.85°W
Report Text: EGLF 290820Z 24014KT 9999 FEW020 02/M00 Q0989
Loading
Personal Weather Stations






























Interactive Weather Map New forecast layout! Learn more

10-Day Weather Forecast

Advertisements
Track Severe Weather on mobile